Time;durP1;ratioP1;P1;durP2;ratioP2;P2;SDS_P1;SDS_P2;PMS_P1;PMS_P2;Temp;Humidity;BMP_temperature;BMP_pressure;BME280_temperature;BME280_humidity;BME280_pressure;Samples;Min_cycle;Max_cycle;Signal;HPM_P1;HPM_P2
2023/10/11 00:00:35;;;;;;;12.73;6.80;;;15.50;99.90;;;;;;5025766;28;20470;-70
2023/10/11 00:03:06;;;;;;;9.97;6.30;;;15.40;99.90;;;;;;5026169;28;20408;-71
2023/10/11 00:05:41;;;;;;;9.73;5.77;;;15.50;99.90;;;;;;5026127;28;20417;-68
2023/10/11 00:08:08;;;;;;;11.97;6.57;;;15.40;99.90;;;;;;5026427;28;20488;-70
2023/10/11 00:10:44;;;;;;;9.97;6.43;;;15.30;99.90;;;;;;5025706;28;20437;-68
2023/10/11 00:13:11;;;;;;;8.63;6.63;;;15.30;99.90;;;;;;5026250;28;20440;-70
2023/10/11 00:15:36;;;;;;;11.93;6.70;;;15.30;99.90;;;;;;5026328;28;20443;-70
2023/10/11 00:18:02;;;;;;;10.20;6.13;;;15.30;99.90;;;;;;5025911;28;20468;-72
2023/10/11 00:20:31;;;;;;;17.07;8.00;;;15.30;99.90;;;;;;5025883;28;20204;-69
2023/10/11 00:22:57;;;;;;;10.90;6.20;;;15.20;99.90;;;;;;5025915;28;20579;-69
2023/10/11 00:25:29;;;;;;;11.57;6.80;;;15.20;99.90;;;;;;5025735;28;20423;-68
2023/10/11 00:27:58;;;;;;;9.90;6.40;;;15.20;99.90;;;;;;5024383;28;20194;-69
2023/10/11 00:30:29;;;;;;;9.10;6.20;;;15.10;99.90;;;;;;5025390;28;20922;-68
2023/10/11 00:32:55;;;;;;;9.80;7.40;;;15.10;99.90;;;;;;5025572;28;20406;-69
2023/10/11 00:35:24;;;;;;;10.40;6.57;;;15.20;99.90;;;;;;5025688;28;20818;-68
2023/10/11 00:37:54;;;;;;;10.50;6.63;;;15.10;99.90;;;;;;5024245;28;20428;-69
2023/10/11 00:40:27;;;;;;;10.63;6.40;;;15.10;99.90;;;;;;5025310;28;20432;-69
2023/10/11 00:42:54;;;;;;;13.90;6.40;;;15.10;99.90;;;;;;5025333;28;20919;-69
2023/10/11 00:45:23;;;;;;;8.17;6.07;;;15.10;99.90;;;;;;5025381;28;20429;-71
2023/10/11 00:47:51;;;;;;;8.50;6.10;;;15.20;99.90;;;;;;5025343;28;20424;-69
2023/10/11 00:50:18;;;;;;;12.03;6.20;;;15.20;99.90;;;;;;5023721;28;20449;-69
2023/10/11 00:52:47;;;;;;;11.37;6.80;;;15.20;99.90;;;;;;5025139;28;20977;-72
2023/10/11 00:55:21;;;;;;;10.33;6.60;;;15.10;99.90;;;;;;5025028;28;20957;-72
2023/10/11 00:57:48;;;;;;;8.10;6.27;;;15.00;99.90;;;;;;5025587;28;20445;-69
2023/10/11 01:00:16;;;;;;;9.13;7.03;;;15.00;99.90;;;;;;5024876;28;20545;-67
2023/10/11 01:02:45;;;;;;;9.37;7.17;;;15.00;99.90;;;;;;5025161;28;20443;-69
2023/10/11 01:05:17;;;;;;;10.53;6.43;;;15.00;99.90;;;;;;5025231;28;20527;-72
2023/10/11 01:07:46;;;;;;;11.47;6.03;;;15.00;99.90;;;;;;5024959;28;20861;-67
2023/10/11 01:10:13;;;;;;;11.17;7.63;;;15.10;99.90;;;;;;5024602;28;20448;-69
2023/10/11 01:12:41;;;;;;;14.30;6.70;;;15.00;99.90;;;;;;5025532;28;20425;-69
2023/10/11 01:15:15;;;;;;;12.30;6.47;;;15.00;99.90;;;;;;5024632;28;20509;-69
2023/10/11 01:17:41;;;;;;;12.17;7.00;;;14.90;99.90;;;;;;5024941;28;20416;-68
2023/10/11 01:20:31;;;;;;;11.77;6.70;;;15.00;99.90;;;;;;5024606;28;20431;-69
2023/10/11 01:22:53;;;;;;;10.17;6.20;;;14.80;99.90;;;;;;5024330;28;20761;-68
2023/10/11 01:25:19;;;;;;;9.80;6.60;;;14.80;99.90;;;;;;5023629;28;20449;-72
2023/10/11 01:27:47;;;;;;;8.37;6.03;;;14.80;99.90;;;;;;5024389;28;20307;-68
2023/10/11 01:30:13;;;;;;;8.40;6.27;;;14.80;99.90;;;;;;5024462;28;20200;-70
2023/10/11 01:32:41;;;;;;;10.73;6.40;;;14.80;99.90;;;;;;5025026;28;20929;-70
2023/10/11 01:35:08;;;;;;;11.50;6.97;;;14.80;99.90;;;;;;5024274;28;20900;-69
2023/10/11 01:37:41;;;;;;;11.37;6.77;;;14.70;99.90;;;;;;5022933;28;20456;-68
2023/10/11 01:40:10;;;;;;;8.77;6.07;;;14.70;99.90;;;;;;5023745;28;20438;-69
2023/10/11 01:42:36;;;;;;;12.53;6.10;;;14.70;99.90;;;;;;5024264;28;20420;-72
2023/10/11 01:45:07;;;;;;;12.30;7.00;;;14.70;99.90;;;;;;5024506;28;20412;-69
2023/10/11 01:47:33;;;;;;;11.43;7.17;;;14.70;99.90;;;;;;5024246;28;20467;-67
2023/10/11 01:49:59;;;;;;;8.73;7.07;;;14.60;99.90;;;;;;5024281;28;20482;-69
2023/10/11 01:52:26;;;;;;;12.00;6.93;;;14.70;99.90;;;;;;5023876;28;20478;-70
2023/10/11 01:54:55;;;;;;;11.27;6.53;;;14.60;99.90;;;;;;5022890;28;20208;-67
2023/10/11 01:57:25;;;;;;;11.30;6.30;;;14.70;99.90;;;;;;5024416;28;20520;-68
2023/10/11 01:59:51;;;;;;;9.93;6.67;;;14.60;99.90;;;;;;5023908;28;20529;-69
2023/10/11 02:02:16;;;;;;;10.80;6.37;;;14.70;99.90;;;;;;5023932;28;20976;-68
2023/10/11 02:04:42;;;;;;;9.00;6.63;;;14.70;99.90;;;;;;5024172;28;20418;-69
2023/10/11 02:07:08;;;;;;;12.03;6.77;;;14.70;99.90;;;;;;5024009;28;20566;-68
2023/10/11 02:09:34;;;;;;;8.47;6.43;;;14.60;99.90;;;;;;5023811;28;20205;-69
2023/10/11 02:11:59;;;;;;;12.60;6.97;;;14.50;99.90;;;;;;5023835;28;20947;-70
2023/10/11 02:14:28;;;;;;;9.43;6.53;;;14.50;99.90;;;;;;5023769;28;20749;-71
2023/10/11 02:16:53;;;;;;;8.90;6.93;;;14.60;99.90;;;;;;5024189;28;20170;-69
2023/10/11 02:19:22;;;;;;;13.37;6.77;;;14.60;99.90;;;;;;5023452;28;20408;-70
2023/10/11 02:21:48;;;;;;;9.20;6.40;;;14.50;99.90;;;;;;5023482;28;20353;-67
2023/10/11 02:24:17;;;;;;;13.97;6.77;;;14.40;99.90;;;;;;5023673;28;20425;-72
2023/10/11 02:26:54;;;;;;;10.27;6.83;;;14.40;99.90;;;;;;5023782;28;20626;-69
2023/10/11 02:29:20;;;;;;;13.00;7.80;;;14.50;99.90;;;;;;5023509;28;20450;-69
2023/10/11 02:31:50;;;;;;;10.50;6.90;;;14.50;99.90;;;;;;5023546;28;20450;-70
2023/10/11 02:34:19;;;;;;;11.10;7.77;;;14.50;99.90;;;;;;5022208;28;20886;-69
2023/10/11 02:36:55;;;;;;;9.67;6.37;;;14.40;99.90;;;;;;5023591;28;20417;-69
2023/10/11 02:39:21;;;;;;;10.57;6.60;;;14.50;99.90;;;;;;5024225;28;20915;-71
2023/10/11 02:41:50;;;;;;;6.97;5.83;;;14.50;99.90;;;;;;5023450;28;20420;-69
2023/10/11 02:44:15;;;;;;;9.70;6.00;;;14.50;99.90;;;;;;5024904;28;20453;-71
2023/10/11 02:46:43;;;;;;;13.10;7.30;;;14.50;99.90;;;;;;5025006;28;20440;-70
2023/10/11 02:49:31;;;;;;;11.63;6.40;;;14.60;99.90;;;;;;5024944;28;20179;-70
2023/10/11 02:51:57;;;;;;;10.27;6.33;;;14.50;99.90;;;;;;5024689;28;20827;-69
2023/10/11 02:54:34;;;;;;;9.33;5.90;;;14.40;99.90;;;;;;5025197;28;20453;-71
2023/10/11 02:57:00;;;;;;;10.80;6.63;;;14.40;99.90;;;;;;5025082;28;20258;-71
2023/10/11 02:59:26;;;;;;;9.13;6.57;;;14.40;99.90;;;;;;5024554;28;20698;-70
2023/10/11 03:02:05;;;;;;;11.70;6.80;;;14.50;99.90;;;;;;5025147;28;21108;-70
2023/10/11 03:04:39;;;;;;;10.47;6.60;;;14.40;99.90;;;;;;5024796;28;20642;-71
2023/10/11 03:07:05;;;;;;;10.17;7.30;;;14.40;99.90;;;;;;5023479;28;21027;-70
2023/10/11 03:09:33;;;;;;;11.30;7.33;;;14.40;99.90;;;;;;5025006;28;20757;-72
2023/10/11 03:12:05;;;;;;;9.33;6.73;;;14.40;99.90;;;;;;5024618;28;20428;-71
2023/10/11 03:14:41;;;;;;;13.40;7.67;;;14.40;99.90;;;;;;5024871;28;20507;-71
2023/10/11 03:17:13;;;;;;;11.63;6.40;;;14.40;99.90;;;;;;5024709;28;20707;-70
2023/10/11 03:19:42;;;;;;;12.33;7.10;;;14.40;99.90;;;;;;5024747;28;20427;-71
2023/10/11 03:22:20;;;;;;;8.87;6.27;;;14.40;99.90;;;;;;5024923;28;20418;-71
2023/10/11 03:24:53;;;;;;;10.13;7.40;;;14.40;99.90;;;;;;5024161;28;20463;-69
2023/10/11 03:27:20;;;;;;;8.47;6.50;;;14.40;99.90;;;;;;5023097;28;20927;-71
2023/10/11 03:29:47;;;;;;;10.93;6.77;;;14.40;99.90;;;;;;5024314;28;20466;-69
2023/10/11 03:32:12;;;;;;;14.23;7.90;;;14.40;99.90;;;;;;5024530;28;20417;-71
2023/10/11 03:34:38;;;;;;;10.30;6.77;;;14.40;99.90;;;;;;5024041;28;20486;-71
2023/10/11 03:37:10;;;;;;;11.07;6.63;;;14.40;99.90;;;;;;5024694;28;20206;-71
2023/10/11 03:44:45;;;;;;;11.63;7.40;;;14.40;99.90;;;;;;5024159;28;20981;-70
2023/10/11 03:47:14;;;;;;;15.13;8.13;;;14.50;99.90;;;;;;5023604;28;20450;-70
2023/10/11 03:55:02;;;;;;;11.80;7.00;;;14.50;99.90;;;;;;5027462;28;20500;-70
2023/10/11 03:57:28;;;;;;;12.23;7.73;;;14.50;99.90;;;;;;5027611;28;20400;-71
2023/10/11 03:59:54;;;;;;;10.67;6.80;;;14.50;99.90;;;;;;5027601;28;21192;-69
2023/10/11 04:02:19;;;;;;;11.67;7.23;;;14.50;99.90;;;;;;5027885;28;20179;-72
2023/10/11 04:04:49;;;;;;;10.47;7.70;;;14.50;99.90;;;;;;5027459;28;20851;-69
2023/10/11 04:07:21;;;;;;;7.53;5.73;;;14.50;99.90;;;;;;5026260;28;20197;-69
2023/10/11 04:09:49;;;;;;;10.83;7.17;;;14.50;99.90;;;;;;5027360;28;20442;-71
2023/10/11 04:12:15;;;;;;;13.10;6.83;;;14.50;99.90;;;;;;5027074;28;20424;-71
2023/10/11 04:14:45;;;;;;;11.47;7.87;;;14.40;99.90;;;;;;5026785;28;20471;-70
2023/10/11 04:19:53;;;;;;;18.40;8.87;;;14.40;99.90;;;;;;5026128;28;20441;-70
2023/10/11 04:22:25;;;;;;;11.60;6.60;;;14.40;99.90;;;;;;5024396;28;20899;-70
2023/10/11 04:24:53;;;;;;;11.97;7.00;;;14.50;99.90;;;;;;5026061;28;20502;-69
2023/10/11 04:29:50;;;;;;;11.83;6.30;;;14.50;99.90;;;;;;5025860;28;20461;-70
2023/10/11 04:32:20;;;;;;;10.47;7.90;;;14.50;99.90;;;;;;5025610;28;20425;-68
2023/10/11 04:34:48;;;;;;;8.97;6.80;;;14.40;99.90;;;;;;5024161;28;20465;-69
2023/10/11 04:37:27;;;;;;;9.53;6.20;;;14.50;99.90;;;;;;5026213;28;20475;-72
2023/10/11 04:39:56;;;;;;;7.47;6.40;;;14.50;99.90;;;;;;5025755;28;20447;-70
2023/10/11 04:42:27;;;;;;;12.83;6.50;;;14.50;99.90;;;;;;5025719;28;20410;-70
2023/10/11 04:44:57;;;;;;;9.50;6.50;;;14.50;99.90;;;;;;5026132;28;20761;-70
2023/10/11 04:47:23;;;;;;;13.70;7.53;;;14.60;99.90;;;;;;5025450;28;20422;-70
2023/10/11 04:49:52;;;;;;;11.77;7.53;;;14.60;99.90;;;;;;5025205;28;20497;-70
2023/10/11 04:52:23;;;;;;;9.00;6.60;;;14.60;99.90;;;;;;5025158;28;20415;-69
2023/10/11 04:54:55;;;;;;;11.63;7.37;;;14.70;99.90;;;;;;5025541;28;20446;-71
2023/10/11 04:58:12;;;;;;;18.03;7.33;;;14.60;99.90;;;;;;5024806;28;20408;-69
2023/10/11 05:00:11;;;;;;;11.23;7.47;;;14.60;99.90;;;;;;5020406;28;20913;-70
2023/10/11 05:02:38;;;;;;;12.07;8.80;;;14.70;99.90;;;;;;5024808;28;20419;-69
2023/10/11 05:05:10;;;;;;;12.60;6.67;;;14.60;99.90;;;;;;5025237;28;20574;-70
2023/10/11 05:07:42;;;;;;;11.77;7.90;;;14.60;99.90;;;;;;5024812;28;20405;-71
2023/10/11 05:12:47;;;;;;;12.17;7.43;;;14.60;99.90;;;;;;5025429;28;20417;-71
2023/10/11 05:15:15;;;;;;;11.87;7.43;;;14.50;99.90;;;;;;5023424;28;20464;-69
2023/10/11 05:17:42;;;;;;;9.20;6.90;;;14.50;99.90;;;;;;5024958;28;20406;-70
2023/10/11 05:30:11;;;;;;;12.87;6.90;;;14.40;99.90;;;;;;5025305;28;20974;-69
2023/10/11 05:52:14;;;;;;;12.97;7.50;;;14.20;99.90;;;;;;5024405;28;20936;-69
2023/10/11 05:54:40;;;;;;;12.50;7.63;;;14.10;99.90;;;;;;5023955;28;20461;-69
2023/10/11 05:57:06;;;;;;;11.10;7.37;;;14.10;99.90;;;;;;5024108;28;21151;-69
2023/10/11 05:59:32;;;;;;;12.53;9.10;;;14.20;99.90;;;;;;5024173;28;20488;-69
2023/10/11 06:01:59;;;;;;;9.80;7.53;;;14.10;99.90;;;;;;5024253;28;20176;-69
2023/10/11 06:04:25;;;;;;;12.00;7.90;;;14.20;99.90;;;;;;5024589;28;20511;-69
2023/10/11 06:06:57;;;;;;;9.20;7.13;;;14.10;99.90;;;;;;5023745;28;20515;-68
2023/10/11 06:09:27;;;;;;;11.20;7.70;;;14.20;99.90;;;;;;5024347;28;20165;-69
2023/10/11 06:11:53;;;;;;;9.40;7.00;;;14.20;99.90;;;;;;5023572;28;20780;-68
2023/10/11 06:14:20;;;;;;;17.80;8.80;;;14.20;99.90;;;;;;5023639;28;20462;-68
2023/10/11 06:16:49;;;;;;;11.17;7.03;;;14.20;99.90;;;;;;5024799;28;20186;-70
2023/10/11 06:19:18;;;;;;;14.77;8.80;;;14.10;99.90;;;;;;5022390;28;20419;-69
2023/10/11 06:21:58;;;;;;;11.70;7.80;;;14.10;99.90;;;;;;5023791;28;20924;-70
2023/10/11 06:24:30;;;;;;;13.03;7.90;;;14.30;99.90;;;;;;5022683;28;20418;-69
2023/10/11 06:26:56;;;;;;;12.57;7.17;;;14.30;99.90;;;;;;5023727;28;20422;-67
2023/10/11 06:29:23;;;;;;;14.10;7.30;;;14.40;99.90;;;;;;5023988;28;20424;-69
2023/10/11 06:31:49;;;;;;;12.00;8.40;;;14.40;99.90;;;;;;5023397;28;21236;-67
2023/10/11 06:34:22;;;;;;;12.30;7.33;;;14.50;99.90;;;;;;5023789;28;20545;-70
2023/10/11 06:36:49;;;;;;;12.33;8.00;;;14.50;99.90;;;;;;5023723;28;20398;-67
2023/10/11 06:40:07;;;;;;;12.47;8.53;;;14.50;99.90;;;;;;5023392;28;20855;-67
2023/10/11 06:44:59;;;;;;;14.77;8.10;;;14.60;99.90;;;;;;5023339;28;20497;-69
2023/10/11 06:47:27;;;;;;;9.87;7.50;;;14.70;99.90;;;;;;5023772;28;20495;-68
2023/10/11 06:49:56;;;;;;;11.97;7.70;;;14.70;99.90;;;;;;5023346;28;20441;-68
2023/10/11 06:52:30;;;;;;;10.40;6.93;;;14.80;99.90;;;;;;5024173;28;20481;-69
2023/10/11 06:57:45;;;;;;;10.57;6.87;;;14.90;99.90;;;;;;5023991;28;20461;-69
2023/10/11 07:00:20;;;;;;;13.67;7.67;;;15.00;99.90;;;;;;5023133;28;20444;-69
2023/10/11 07:02:47;;;;;;;12.90;7.87;;;15.10;99.90;;;;;;5021914;28;20412;-68
2023/10/11 07:05:17;;;;;;;14.37;8.00;;;15.10;99.90;;;;;;5023429;28;20415;-67
2023/10/11 07:07:52;;;;;;;14.33;7.80;;;15.20;99.90;;;;;;5023546;28;20421;-68
2023/10/11 07:10:32;;;;;;;13.17;7.90;;;15.30;99.90;;;;;;5022399;28;20429;-70
2023/10/11 07:13:12;;;;;;;13.50;7.47;;;15.40;99.90;;;;;;5023107;28;20414;-70
2023/10/11 07:15:47;;;;;;;13.90;7.87;;;15.50;99.90;;;;;;5022009;28;20542;-70
2023/10/11 07:18:27;;;;;;;17.90;7.43;;;15.60;99.90;;;;;;5023682;28;20427;-68
2023/10/11 07:21:07;;;;;;;8.87;5.97;;;15.80;99.90;;;;;;5023682;28;20442;-68
2023/10/11 07:23:55;;;;;;;9.70;5.90;;;15.90;99.90;;;;;;5025047;28;20992;-68
2023/10/11 07:29:02;;;;;;;10.87;6.13;;;16.30;99.90;;;;;;5028329;28;20483;-70
2023/10/11 07:31:32;;;;;;;12.03;5.97;;;16.50;99.90;;;;;;5027316;28;20506;-70
2023/10/11 07:33:58;;;;;;;14.97;6.47;;;16.70;99.90;;;;;;5026958;28;20836;-69
2023/10/11 07:36:25;;;;;;;11.33;7.37;;;16.60;99.90;;;;;;5026357;28;20414;-70
2023/10/11 07:38:54;;;;;;;11.60;7.50;;;16.50;99.90;;;;;;5026773;28;20409;-69
2023/10/11 07:41:30;;;;;;;11.17;6.73;;;16.70;99.90;;;;;;5026558;28;20426;-68
2023/10/11 07:43:56;;;;;;;9.40;5.93;;;16.80;99.90;;;;;;5027349;28;20409;-70
2023/10/11 07:46:22;;;;;;;9.93;5.93;;;17.00;99.90;;;;;;5026350;28;20434;-70
2023/10/11 07:48:54;;;;;;;14.70;7.10;;;17.10;99.90;;;;;;5026354;28;20448;-68
2023/10/11 07:51:19;;;;;;;10.63;7.20;;;17.10;99.90;;;;;;5026408;28;20434;-69
2023/10/11 07:53:45;;;;;;;15.77;7.20;;;17.30;99.90;;;;;;5026506;28;20453;-69
2023/10/11 07:56:12;;;;;;;8.50;6.33;;;17.20;99.90;;;;;;5026099;28;20784;-70
2023/10/11 07:58:45;;;;;;;16.53;8.13;;;17.30;99.90;;;;;;5026564;28;20175;-71
2023/10/11 08:01:42;;;;;;;10.23;6.47;;;17.40;99.90;;;;;;5025952;28;20453;-69
2023/10/11 08:07:12;;;;;;;12.63;6.17;;;17.90;99.90;;;;;;5021335;28;20414;-68
2023/10/11 08:09:47;;;;;;;12.20;7.80;;;18.00;99.90;;;;;;5026021;28;20940;-70
2023/10/11 08:12:18;;;;;;;19.30;9.37;;;18.10;99.90;;;;;;5026168;28;20409;-71
2023/10/11 08:14:47;;;;;;;17.87;8.13;;;17.90;99.90;;;;;;5026137;28;20595;-69
2023/10/11 08:17:17;;;;;;;11.67;7.20;;;17.80;99.90;;;;;;5025887;28;20425;-70
2023/10/11 08:19:46;;;;;;;29.23;9.53;;;17.90;99.90;;;;;;5025691;28;20434;-68
2023/10/11 08:22:15;;;;;;;21.47;8.70;;;17.80;99.90;;;;;;5025669;28;20418;-70
2023/10/11 08:24:56;;;;;;;22.20;8.67;;;18.00;99.90;;;;;;5025939;28;20421;-70
2023/10/11 08:27:28;;;;;;;18.50;8.57;;;18.10;99.90;;;;;;5026001;28;20456;-70
2023/10/11 08:32:56;;;;;;;17.93;7.07;;;18.50;99.90;;;;;;5013210;28;20476;-70
2023/10/11 08:35:31;;;;;;;18.40;7.27;;;18.60;99.90;;;;;;5025020;28;20869;-69
2023/10/11 08:38:02;;;;;;;14.80;7.53;;;18.60;99.90;;;;;;5025168;28;20163;-70
2023/10/11 08:40:35;;;;;;;15.63;6.87;;;18.70;99.90;;;;;;5025567;28;20487;-69
2023/10/11 08:43:02;;;;;;;12.57;7.67;;;18.80;99.90;;;;;;5025566;28;20412;-70
2023/10/11 08:45:33;;;;;;;19.83;7.73;;;18.80;99.90;;;;;;5025830;28;20421;-70
2023/10/11 08:48:00;;;;;;;16.10;7.23;;;18.90;99.90;;;;;;5025462;28;20412;-70
2023/10/11 08:50:34;;;;;;;16.07;7.73;;;18.90;99.90;;;;;;5025009;28;20491;-68
2023/10/11 08:53:01;;;;;;;15.73;7.83;;;19.00;99.90;;;;;;5025498;28;20398;-70
2023/10/11 08:55:27;;;;;;;14.63;7.30;;;19.00;99.90;;;;;;5025178;28;20532;-70
2023/10/11 08:57:53;;;;;;;11.23;7.00;;;19.10;99.90;;;;;;5025137;28;20971;-68
2023/10/11 09:00:29;;;;;;;11.63;7.03;;;19.30;99.90;;;;;;5025230;28;20214;-70
2023/10/11 09:03:20;;;;;;;12.00;7.00;;;19.40;99.90;;;;;;5024972;28;20421;-69
2023/10/11 09:05:47;;;;;;;13.80;7.83;;;19.40;99.90;;;;;;5024958;28;20477;-70
2023/10/11 09:08:21;;;;;;;10.70;6.53;;;19.30;99.90;;;;;;5025090;28;20420;-68
2023/10/11 09:10:51;;;;;;;14.73;7.50;;;19.50;99.90;;;;;;5024908;28;20436;-70
2023/10/11 09:13:28;;;;;;;11.17;6.40;;;19.70;99.90;;;;;;5023555;28;20943;-71
2023/10/11 09:15:54;;;;;;;11.20;7.63;;;19.90;99.90;;;;;;5025298;28;20510;-71
2023/10/11 09:18:21;;;;;;;16.80;7.90;;;20.20;99.90;;;;;;5025162;28;20406;-70
2023/10/11 09:21:08;;;;;;;15.17;8.23;;;20.30;99.90;;;;;;5025035;28;20933;-70
2023/10/11 09:23:38;;;;;;;16.10;7.43;;;20.30;99.90;;;;;;5024981;28;20397;-69
2023/10/11 09:26:05;;;;;;;24.30;7.90;;;20.40;99.90;;;;;;5025096;28;20446;-71
2023/10/11 09:28:40;;;;;;;13.10;7.60;;;20.60;99.90;;;;;;5024435;28;20401;-70
2023/10/11 09:31:11;;;;;;;15.13;6.50;;;20.70;99.90;;;;;;5024651;28;20575;-69
2023/10/11 09:33:41;;;;;;;18.63;8.33;;;20.90;99.90;;;;;;5024727;28;20411;-68
2023/10/11 09:36:08;;;;;;;15.70;8.43;;;21.10;99.90;;;;;;5024055;28;20819;-69
2023/10/11 09:38:39;;;;;;;12.70;6.30;;;21.20;99.90;;;;;;5024221;28;20405;-69
2023/10/11 09:41:07;;;;;;;20.30;6.70;;;21.40;99.90;;;;;;5023872;28;20866;-70
2023/10/11 09:43:44;;;;;;;14.93;5.93;;;21.60;99.90;;;;;;5024135;28;20406;-70
2023/10/11 09:46:13;;;;;;;12.20;7.17;;;21.70;99.50;;;;;;5024257;28;20911;-69
2023/10/11 09:48:41;;;;;;;15.10;7.10;;;21.90;99.90;;;;;;5024223;28;20422;-69
2023/10/11 09:51:09;;;;;;;15.77;5.90;;;22.10;99.90;;;;;;5024255;28;20571;-70
2023/10/11 09:53:41;;;;;;;12.40;5.57;;;22.40;98.50;;;;;;5024173;28;20406;-71
2023/10/11 09:56:30;;;;;;;15.10;6.80;;;22.50;97.80;;;;;;5024268;28;20410;-70
2023/10/11 09:59:34;;;;;;;9.90;5.07;;;22.70;98.40;;;;;;4994625;28;20467;-70
2023/10/11 10:02:33;;;;;;;14.37;5.07;;;22.80;96.20;;;;;;5010892;28;20912;-70
2023/10/11 10:05:04;;;;;;;12.60;6.10;;;23.00;96.20;;;;;;5026509;28;20408;-70
2023/10/11 10:10:26;;;;;;;8.77;4.97;;;23.20;94.70;;;;;;5024001;28;20442;-69
2023/10/11 10:12:55;;;;;;;9.53;5.13;;;23.60;93.80;;;;;;5023188;28;20575;-72
2023/10/11 10:15:32;;;;;;;11.73;5.20;;;23.80;94.20;;;;;;5025297;28;20460;-71
2023/10/11 10:18:03;;;;;;;11.27;5.10;;;23.90;93.00;;;;;;5025989;28;20525;-72
2023/10/11 10:20:34;;;;;;;14.30;4.70;;;24.00;92.60;;;;;;5025222;28;20908;-72
2023/10/11 10:23:15;;;;;;;10.23;4.90;;;24.10;92.40;;;;;;5024981;28;20782;-72
2023/10/11 10:25:48;;;;;;;12.30;4.87;;;24.20;92.20;;;;;;5024774;28;20471;-69
2023/10/11 10:28:32;;;;;;;9.23;5.00;;;24.30;92.00;;;;;;5024627;28;20427;-70
2023/10/11 10:31:16;;;;;;;10.50;4.90;;;24.30;91.20;;;;;;5024440;28;20578;-71
2023/10/11 10:33:44;;;;;;;11.50;5.30;;;24.40;91.60;;;;;;5024051;28;20525;-72
2023/10/11 10:36:21;;;;;;;10.90;5.83;;;24.50;91.00;;;;;;5024901;28;20452;-69
2023/10/11 10:39:03;;;;;;;9.83;5.10;;;24.70;90.40;;;;;;5025148;28;20500;-71
2023/10/11 10:41:33;;;;;;;10.90;5.20;;;24.70;90.90;;;;;;5024821;28;20529;-70
2023/10/11 10:44:04;;;;;;;11.63;5.30;;;24.80;90.60;;;;;;5023542;28;20452;-70
2023/10/11 10:46:33;;;;;;;11.77;4.93;;;24.90;90.70;;;;;;5025089;28;20532;-70
2023/10/11 10:49:01;;;;;;;10.80;4.47;;;25.00;90.40;;;;;;5025051;28;20947;-70
2023/10/11 10:51:37;;;;;;;11.17;5.30;;;25.20;90.20;;;;;;5025136;28;20437;-72
2023/10/11 10:54:21;;;;;;;12.23;5.50;;;25.40;88.70;;;;;;5025098;28;20485;-72
2023/10/11 10:56:48;;;;;;;7.90;4.87;;;25.60;90.20;;;;;;5025628;28;20407;-70
2023/10/11 10:59:15;;;;;;;6.77;4.63;;;25.90;86.80;;;;;;5028854;28;20421;-70
2023/10/11 11:01:46;;;;;;;8.47;4.70;;;27.50;84.20;;;;;;5029751;28;20955;-71
2023/10/11 11:04:13;;;;;;;10.97;4.50;;;30.00;76.40;;;;;;5029766;28;20472;-72
2023/10/11 11:06:44;;;;;;;11.07;6.03;;;31.30;72.00;;;;;;5029229;28;20433;-70
2023/10/11 11:09:15;;;;;;;9.80;4.40;;;32.50;67.50;;;;;;5044078;28;20452;-71
2023/10/11 11:11:44;;;;;;;11.37;5.03;;;34.10;59.80;;;;;;5028831;28;20417;-72
2023/10/11 11:14:11;;;;;;;9.20;4.70;;;33.00;57.40;;;;;;5028554;28;20508;-71
2023/10/11 11:16:41;;;;;;;10.90;4.60;;;33.40;56.70;;;;;;5027323;28;20441;-72
2023/10/11 11:19:16;;;;;;;6.40;4.40;;;34.70;54.20;;;;;;5029106;28;20958;-72
2023/10/11 11:21:46;;;;;;;12.03;4.37;;;35.60;51.50;;;;;;5028965;28;20414;-73
2023/10/11 11:24:27;;;;;;;11.70;5.00;;;35.80;49.80;;;;;;5029467;28;20959;-73
2023/10/11 11:26:56;;;;;;;10.47;5.13;;;35.40;50.00;;;;;;5029297;28;20712;-72
2023/10/11 11:29:32;;;;;;;11.17;4.67;;;36.40;47.60;;;;;;5029470;28;20614;-73
2023/10/11 11:32:14;;;;;;;9.20;4.50;;;36.00;47.90;;;;;;5028123;28;20421;-72
2023/10/11 11:35:04;;;;;;;8.80;4.23;;;35.80;47.70;;;;;;5026951;28;20453;-72
2023/10/11 11:37:31;;;;;;;10.13;4.90;;;34.90;47.70;;;;;;5028086;28;20401;-71
2023/10/11 11:42:47;;;;;;;10.90;4.70;;;35.40;47.70;;;;;;5022057;28;20397;-71
2023/10/11 11:45:14;;;;;;;8.07;4.13;;;34.70;47.30;;;;;;5022293;28;20439;-71
2023/10/11 11:47:40;;;;;;;9.00;4.10;;;36.30;47.20;;;;;;5022086;28;20418;-71
2023/10/11 11:50:18;;;;;;;15.87;4.13;;;35.80;45.80;;;;;;5022220;28;20441;-71
2023/10/11 11:52:43;;;;;;;12.30;4.40;;;34.70;47.00;;;;;;5023927;28;20471;-69
2023/10/11 11:55:09;;;;;;;7.57;4.20;;;34.10;47.80;;;;;;5023188;28;20485;-72
2023/10/11 11:57:35;;;;;;;8.90;4.67;;;34.70;47.10;;;;;;5023408;28;20188;-71
2023/10/11 12:00:19;;;;;;;11.77;4.80;;;35.00;46.30;;;;;;5022829;28;20461;-72
2023/10/11 12:02:45;;;;;;;11.83;4.70;;;36.10;46.00;;;;;;5021807;28;20464;-71
2023/10/11 12:05:11;;;;;;;13.23;5.83;;;35.90;45.90;;;;;;5022152;28;21320;-72
2023/10/11 12:07:36;;;;;;;11.53;4.73;;;34.80;47.10;;;;;;5022418;28;20627;-73
2023/10/11 12:10:08;;;;;;;15.70;4.63;;;35.50;46.70;;;;;;5022779;28;20199;-70
2023/10/11 12:12:34;;;;;;;9.70;5.03;;;36.30;45.40;;;;;;5022344;28;20183;-70
2023/10/11 12:14:59;;;;;;;9.53;4.60;;;37.40;44.40;;;;;;5022959;28;20971;-71
2023/10/11 12:17:25;;;;;;;15.00;4.87;;;37.10;44.30;;;;;;5022229;28;20519;-69
2023/10/11 12:19:53;;;;;;;8.67;4.60;;;38.50;42.80;;;;;;5024501;28;20250;-72
2023/10/11 12:22:21;;;;;;;9.83;5.00;;;38.80;41.80;;;;;;5022793;28;20783;-70
2023/10/11 12:24:48;;;;;;;7.37;4.50;;;37.70;42.80;;;;;;5024002;28;20441;-73
2023/10/11 12:27:13;;;;;;;8.53;4.63;;;38.70;42.00;;;;;;5022945;28;20414;-72
2023/10/11 12:29:39;;;;;;;13.00;4.60;;;39.50;41.50;;;;;;5023921;28;20441;-72
2023/10/11 12:32:06;;;;;;;12.50;4.90;;;38.80;40.90;;;;;;5024850;28;20549;-73
2023/10/11 12:34:32;;;;;;;7.90;4.10;;;37.90;41.40;;;;;;5024043;28;20983;-74
2023/10/11 12:37:00;;;;;;;12.57;4.57;;;38.90;42.20;;;;;;5025351;28;20461;-71
2023/10/11 12:39:29;;;;;;;8.33;4.37;;;39.40;40.80;;;;;;5024124;28;20174;-73
2023/10/11 12:41:56;;;;;;;9.67;4.63;;;38.80;40.20;;;;;;5024091;28;20474;-73
2023/10/11 12:44:24;;;;;;;22.67;5.07;;;38.70;40.80;;;;;;5023232;28;20412;-72
2023/10/11 12:46:51;;;;;;;9.93;4.90;;;38.90;40.80;;;;;;5039025;28;20453;-73
2023/10/11 12:49:17;;;;;;;14.20;5.80;;;37.60;42.00;;;;;;5024249;28;20401;-72
2023/10/11 12:51:45;;;;;;;10.80;4.50;;;36.30;43.00;;;;;;5022727;28;20946;-73
2023/10/11 12:54:11;;;;;;;6.30;5.30;;;37.60;44.30;;;;;;5024453;28;20450;-73
2023/10/11 12:56:37;;;;;;;8.13;5.33;;;39.30;40.60;;;;;;5023887;28;20413;-72
2023/10/11 12:59:10;;;;;;;9.70;5.00;;;40.30;39.30;;;;;;5025198;28;20414;-71
2023/10/11 13:01:36;;;;;;;12.40;4.27;;;41.30;38.10;;;;;;5024249;28;20233;-71
2023/10/11 13:04:06;;;;;;;12.40;4.50;;;41.00;35.70;;;;;;5023534;28;20424;-72
2023/10/11 13:06:39;;;;;;;5.90;3.93;;;40.30;36.10;;;;;;5023814;28;20398;-73
2023/10/11 13:09:14;;;;;;;7.93;3.40;;;38.70;37.70;;;;;;5025425;28;20413;-72
2023/10/11 13:11:44;;;;;;;4.27;2.97;;;38.90;35.90;;;;;;5023441;28;20966;-73
2023/10/11 13:14:20;;;;;;;8.80;4.40;;;38.50;34.50;;;;;;5024514;28;20476;-68
2023/10/11 13:16:48;;;;;;;6.37;3.70;;;38.20;35.20;;;;;;5024988;28;20775;-70
2023/10/11 13:19:17;;;;;;;7.17;4.30;;;37.60;36.00;;;;;;5024830;28;20439;-71
2023/10/11 13:21:47;;;;;;;5.03;3.63;;;38.10;35.10;;;;;;5025291;28;20452;-70
2023/10/11 13:24:14;;;;;;;6.50;3.73;;;37.60;35.30;;;;;;5024319;28;20553;-72
2023/10/11 13:26:46;;;;;;;7.13;3.63;;;37.60;35.20;;;;;;5023145;28;22034;-69
2023/10/11 13:29:18;;;;;;;5.93;3.17;;;37.10;35.30;;;;;;5023738;28;20495;-71
2023/10/11 13:31:57;;;;;;;5.77;3.30;;;38.00;35.90;;;;;;5023511;28;20816;-71
2023/10/11 13:34:30;;;;;;;6.03;3.60;;;37.30;35.60;;;;;;5026061;28;20503;-70
2023/10/11 13:37:00;;;;;;;4.10;3.20;;;38.10;35.20;;;;;;5024430;28;20420;-72
2023/10/11 13:39:27;;;;;;;4.80;3.60;;;38.70;35.30;;;;;;5023371;28;20429;-72
2023/10/11 13:41:57;;;;;;;9.07;3.77;;;38.80;34.10;;;;;;5023437;28;20417;-69
2023/10/11 13:44:26;;;;;;;7.43;3.53;;;38.70;34.20;;;;;;5022848;28;20426;-70
2023/10/11 13:46:58;;;;;;;4.83;3.20;;;37.80;35.60;;;;;;5022861;28;20425;-69
2023/10/11 13:49:25;;;;;;;9.00;3.90;;;39.40;34.50;;;;;;5022985;28;20472;-73
2023/10/11 13:51:58;;;;;;;7.03;3.40;;;40.10;33.50;;;;;;5024094;28;20410;-72
2023/10/11 13:54:45;;;;;;;5.60;3.70;;;40.10;33.20;;;;;;5022107;28;20468;-72
2023/10/11 13:57:16;;;;;;;11.80;4.00;;;39.80;32.90;;;;;;5022785;28;20946;-71
2023/10/11 13:59:48;;;;;;;5.90;3.80;;;38.20;33.30;;;;;;5022764;28;20441;-72
2023/10/11 14:07:37;;;;;;;4.50;3.67;;;35.40;36.20;;;;;;5023141;28;20935;-73
2023/10/11 14:13:08;;;;;;;6.00;3.40;;;32.60;40.20;;;;;;5016966;28;20468;-72